Khartoum, Sudan

3:17 AM EAT on September 05, 2015 (GMT +0300)
Khartoum | | Change Station
CLOSE
Current Station
Airport
Location: Khartoum,
Elevation: 1247 ft
Nearby Weather Stations

Elev 1247 ft 15.59 °N, 32.55 °E | Updated 17 minutes ago

Clear
Clear
88 °F
Feels Like 88 °F
N
9
Wind Variable Wind from SSW

Today
High -- | Low -- °F
--% Chance of Precip.
Yesterday
High -- | Low -- °F
Precip. -- in
6:37 AM 6:59 PM
Waning Gibbous, 54% visible
Pressure 29.80 in
Visibility -9999.0 miles
Clouds
Heat Index 88 °F
Dew Point 63 °F
Humidity 43%
Rainfall 0.00 in
Snow Depth Not available.
UV Not available.
Pollen Not available.
Air Quality Not available.
Flu Activity Not available.
METAR HSSS 050000Z 20008KT CAVOK 31/17 Q1009 NOSIG
Pressure 29.80 in
Visibility -9999.0 miles
Clouds
Heat Index 88 °F
Dew Point 63 °F
Humidity 43%
Rainfall 0.00 in
Snow Depth Not available.
UV Not available.
Pollen Not available.
Air Quality Not available.
Flu Activity Not available.
METAR HSSS 050000Z 20008KT CAVOK 31/17 Q1009 NOSIG

10-Day Weather Forecast

×

Almanac

Astronomy

Sep. 05, 2015 Rise Set
Actual Time
Civil Twilight
Nautical Twilight
Astronomical Twilight
Moon
Length of Visible Light
Length of Day
Tomorrow will be .
, % of the Moon is Illuminated

Today's Extremes

Country Highs Country Lows

Community

WunderPhotos

Upload Photos

1,852,345 photos uploaded!

WunderBlogs® & News

Nearby

Air Quality

  Air Quality AQ Index Pollutant
Not available.

Snow Depth

Station Depth Elevation

Earthquake Activity

City Distance Mag. Time & Date
Minimum magnitude displayed is 2.5.

Coastal Water Temperatures

Place Temperature

Stations

Nearby Weather Stations

Station Location Temp. Windchill Dew Point Humidity Wind Precip. Elev Updated Type